sensor_id;sensor_type;location;lat;lon;timestamp;P1;durP1;ratioP1;P2;durP2;ratioP2
75760;SDS011;64373;46.136;8.830;2023-09-19T00:01:41;2.65;;;1.35;;
75760;SDS011;64373;46.136;8.830;2023-09-19T00:04:10;3.63;;;1.40;;
75760;SDS011;64373;46.136;8.830;2023-09-19T00:06:38;3.30;;;1.23;;
75760;SDS011;64373;46.136;8.830;2023-09-19T00:09:04;5.05;;;1.42;;
75760;SDS011;64373;46.136;8.830;2023-09-19T00:11:30;2.22;;;1.00;;
75760;SDS011;64373;46.136;8.830;2023-09-19T00:13:57;3.42;;;1.30;;
75760;SDS011;64373;46.136;8.830;2023-09-19T00:16:24;1.55;;;1.27;;
75760;SDS011;64373;46.136;8.830;2023-09-19T00:18:50;1.02;;;0.73;;
75760;SDS011;64373;46.136;8.830;2023-09-19T00:21:17;1.98;;;1.40;;
75760;SDS011;64373;46.136;8.830;2023-09-19T00:23:45;4.00;;;1.40;;
75760;SDS011;64373;46.136;8.830;2023-09-19T00:26:11;1.83;;;1.20;;
75760;SDS011;64373;46.136;8.830;2023-09-19T00:28:38;1.98;;;1.00;;
75760;SDS011;64373;46.136;8.830;2023-09-19T00:31:04;2.33;;;1.10;;
75760;SDS011;64373;46.136;8.830;2023-09-19T00:33:33;1.40;;;0.90;;
75760;SDS011;64373;46.136;8.830;2023-09-19T00:35:59;2.58;;;1.13;;
75760;SDS011;64373;46.136;8.830;2023-09-19T00:38:27;3.08;;;1.05;;
75760;SDS011;64373;46.136;8.830;2023-09-19T00:40:53;2.08;;;1.13;;
75760;SDS011;64373;46.136;8.830;2023-09-19T00:43:19;3.22;;;1.27;;
75760;SDS011;64373;46.136;8.830;2023-09-19T00:45:47;2.88;;;1.08;;
75760;SDS011;64373;46.136;8.830;2023-09-19T00:48:15;1.67;;;1.05;;
75760;SDS011;64373;46.136;8.830;2023-09-19T00:50:42;1.63;;;0.90;;
75760;SDS011;64373;46.136;8.830;2023-09-19T00:53:09;3.50;;;1.35;;
75760;SDS011;64373;46.136;8.830;2023-09-19T00:55:35;2.92;;;1.20;;
75760;SDS011;64373;46.136;8.830;2023-09-19T00:58:02;1.98;;;0.90;;
75760;SDS011;64373;46.136;8.830;2023-09-19T01:00:31;1.33;;;0.80;;
75760;SDS011;64373;46.136;8.830;2023-09-19T01:02:59;1.08;;;0.80;;
75760;SDS011;64373;46.136;8.830;2023-09-19T01:05:28;1.55;;;0.90;;
75760;SDS011;64373;46.136;8.830;2023-09-19T01:07:57;1.25;;;0.95;;
75760;SDS011;64373;46.136;8.830;2023-09-19T01:10:23;4.03;;;1.17;;
75760;SDS011;64373;46.136;8.830;2023-09-19T01:13:02;1.85;;;1.00;;
75760;SDS011;64373;46.136;8.830;2023-09-19T01:15:49;5.75;;;1.30;;
75760;SDS011;64373;46.136;8.830;2023-09-19T01:18:39;2.35;;;1.10;;
75760;SDS011;64373;46.136;8.830;2023-09-19T01:29:50;3.28;;;0.93;;
75760;SDS011;64373;46.136;8.830;2023-09-19T01:32:16;2.15;;;1.30;;
75760;SDS011;64373;46.136;8.830;2023-09-19T01:34:47;1.83;;;0.90;;
75760;SDS011;64373;46.136;8.830;2023-09-19T01:37:17;1.20;;;0.75;;
75760;SDS011;64373;46.136;8.830;2023-09-19T01:42:24;2.03;;;1.00;;
75760;SDS011;64373;46.136;8.830;2023-09-19T01:47:46;3.33;;;1.20;;
75760;SDS011;64373;46.136;8.830;2023-09-19T01:52:53;2.47;;;1.10;;
75760;SDS011;64373;46.136;8.830;2023-09-19T01:55:23;3.20;;;0.95;;
75760;SDS011;64373;46.136;8.830;2023-09-19T01:58:06;4.47;;;1.08;;
75760;SDS011;64373;46.136;8.830;2023-09-19T02:00:44;4.53;;;1.10;;
75760;SDS011;64373;46.136;8.830;2023-09-19T02:03:13;2.47;;;0.90;;
75760;SDS011;64373;46.136;8.830;2023-09-19T02:05:39;3.08;;;1.10;;
75760;SDS011;64373;46.136;8.830;2023-09-19T02:08:04;1.40;;;1.00;;
75760;SDS011;64373;46.136;8.830;2023-09-19T02:10:30;1.73;;;0.70;;
75760;SDS011;64373;46.136;8.830;2023-09-19T02:12:56;1.08;;;0.70;;
75760;SDS011;64373;46.136;8.830;2023-09-19T02:15:21;1.13;;;0.73;;
75760;SDS011;64373;46.136;8.830;2023-09-19T02:17:47;1.10;;;0.65;;
75760;SDS011;64373;46.136;8.830;2023-09-19T02:20:13;1.17;;;0.98;;
75760;SDS011;64373;46.136;8.830;2023-09-19T02:22:40;5.45;;;1.10;;
75760;SDS011;64373;46.136;8.830;2023-09-19T02:25:07;1.40;;;0.82;;
75760;SDS011;64373;46.136;8.830;2023-09-19T02:27:34;2.25;;;1.20;;
75760;SDS011;64373;46.136;8.830;2023-09-19T02:29:59;1.65;;;0.90;;
75760;SDS011;64373;46.136;8.830;2023-09-19T02:32:29;2.67;;;1.20;;
75760;SDS011;64373;46.136;8.830;2023-09-19T02:35:01;1.65;;;0.93;;
75760;SDS011;64373;46.136;8.830;2023-09-19T02:37:29;1.52;;;0.98;;
75760;SDS011;64373;46.136;8.830;2023-09-19T02:39:56;1.38;;;0.82;;
75760;SDS011;64373;46.136;8.830;2023-09-19T02:42:21;2.10;;;1.10;;
75760;SDS011;64373;46.136;8.830;2023-09-19T02:44:47;1.60;;;1.00;;
75760;SDS011;64373;46.136;8.830;2023-09-19T02:47:13;1.98;;;1.17;;
75760;SDS011;64373;46.136;8.830;2023-09-19T02:49:40;2.30;;;1.10;;
75760;SDS011;64373;46.136;8.830;2023-09-19T02:52:07;3.20;;;1.20;;
75760;SDS011;64373;46.136;8.830;2023-09-19T02:54:33;2.70;;;0.90;;
75760;SDS011;64373;46.136;8.830;2023-09-19T02:56:58;2.30;;;1.00;;
75760;SDS011;64373;46.136;8.830;2023-09-19T02:59:24;1.30;;;0.90;;
75760;SDS011;64373;46.136;8.830;2023-09-19T03:01:50;3.15;;;0.88;;
75760;SDS011;64373;46.136;8.830;2023-09-19T03:04:15;1.35;;;0.73;;
75760;SDS011;64373;46.136;8.830;2023-09-19T03:06:45;3.95;;;1.80;;
75760;SDS011;64373;46.136;8.830;2023-09-19T03:09:11;1.20;;;1.08;;
75760;SDS011;64373;46.136;8.830;2023-09-19T03:11:36;0.98;;;0.90;;
75760;SDS011;64373;46.136;8.830;2023-09-19T03:14:05;1.33;;;0.80;;
75760;SDS011;64373;46.136;8.830;2023-09-19T03:16:30;3.05;;;1.10;;
75760;SDS011;64373;46.136;8.830;2023-09-19T03:18:56;1.23;;;0.90;;
75760;SDS011;64373;46.136;8.830;2023-09-19T03:21:24;4.05;;;1.00;;
75760;SDS011;64373;46.136;8.830;2023-09-19T03:23:50;3.33;;;1.00;;
75760;SDS011;64373;46.136;8.830;2023-09-19T03:26:16;2.33;;;1.05;;
75760;SDS011;64373;46.136;8.830;2023-09-19T03:28:42;0.75;;;0.60;;
75760;SDS011;64373;46.136;8.830;2023-09-19T03:31:08;4.38;;;0.88;;
75760;SDS011;64373;46.136;8.830;2023-09-19T03:33:34;1.52;;;1.10;;
75760;SDS011;64373;46.136;8.830;2023-09-19T03:36:00;3.42;;;0.90;;
75760;SDS011;64373;46.136;8.830;2023-09-19T03:38:30;2.40;;;1.13;;
75760;SDS011;64373;46.136;8.830;2023-09-19T03:40:56;7.13;;;2.20;;
75760;SDS011;64373;46.136;8.830;2023-09-19T03:43:22;2.95;;;1.00;;
75760;SDS011;64373;46.136;8.830;2023-09-19T03:45:47;1.30;;;0.90;;
75760;SDS011;64373;46.136;8.830;2023-09-19T03:48:14;2.25;;;1.10;;
75760;SDS011;64373;46.136;8.830;2023-09-19T03:50:39;2.10;;;0.60;;
75760;SDS011;64373;46.136;8.830;2023-09-19T03:53:05;1.95;;;0.70;;
75760;SDS011;64373;46.136;8.830;2023-09-19T03:55:34;2.92;;;0.90;;
75760;SDS011;64373;46.136;8.830;2023-09-19T03:58:04;3.35;;;0.75;;
75760;SDS011;64373;46.136;8.830;2023-09-19T04:00:30;1.63;;;0.85;;
75760;SDS011;64373;46.136;8.830;2023-09-19T04:02:55;1.48;;;0.82;;
75760;SDS011;64373;46.136;8.830;2023-09-19T04:05:22;1.67;;;0.70;;
75760;SDS011;64373;46.136;8.830;2023-09-19T04:07:48;1.70;;;0.70;;
75760;SDS011;64373;46.136;8.830;2023-09-19T04:10:15;1.00;;;0.70;;
75760;SDS011;64373;46.136;8.830;2023-09-19T04:12:50;1.27;;;0.70;;
75760;SDS011;64373;46.136;8.830;2023-09-19T04:15:19;1.00;;;0.60;;
75760;SDS011;64373;46.136;8.830;2023-09-19T04:17:48;0.93;;;0.80;;
75760;SDS011;64373;46.136;8.830;2023-09-19T04:20:17;0.93;;;0.60;;
75760;SDS011;64373;46.136;8.830;2023-09-19T04:22:44;1.88;;;0.52;;
75760;SDS011;64373;46.136;8.830;2023-09-19T04:25:11;0.93;;;0.60;;
75760;SDS011;64373;46.136;8.830;2023-09-19T06:05:08;6.57;;;2.58;;
75760;SDS011;64373;46.136;8.830;2023-09-19T06:07:36;4.72;;;2.00;;
75760;SDS011;64373;46.136;8.830;2023-09-19T06:10:05;2.60;;;0.90;;
75760;SDS011;64373;46.136;8.830;2023-09-19T06:12:41;4.18;;;0.80;;
75760;SDS011;64373;46.136;8.830;2023-09-19T06:15:10;1.45;;;0.70;;
75760;SDS011;64373;46.136;8.830;2023-09-19T06:17:49;1.73;;;0.60;;
75760;SDS011;64373;46.136;8.830;2023-09-19T06:20:15;0.90;;;0.60;;
75760;SDS011;64373;46.136;8.830;2023-09-19T06:22:45;1.17;;;0.57;;
75760;SDS011;64373;46.136;8.830;2023-09-19T06:25:12;2.88;;;0.75;;
75760;SDS011;64373;46.136;8.830;2023-09-19T06:27:49;2.15;;;0.80;;
75760;SDS011;64373;46.136;8.830;2023-09-19T06:30:17;0.70;;;0.43;;
75760;SDS011;64373;46.136;8.830;2023-09-19T06:32:43;1.05;;;0.50;;
75760;SDS011;64373;46.136;8.830;2023-09-19T06:35:09;1.15;;;0.50;;
75760;SDS011;64373;46.136;8.830;2023-09-19T06:37:40;2.53;;;0.98;;
75760;SDS011;64373;46.136;8.830;2023-09-19T06:40:10;1.40;;;0.60;;
75760;SDS011;64373;46.136;8.830;2023-09-19T06:42:42;0.90;;;0.63;;
75760;SDS011;64373;46.136;8.830;2023-09-19T06:45:10;3.75;;;0.80;;
75760;SDS011;64373;46.136;8.830;2023-09-19T06:47:38;1.33;;;0.60;;
75760;SDS011;64373;46.136;8.830;2023-09-19T06:50:05;2.38;;;0.77;;
75760;SDS011;64373;46.136;8.830;2023-09-19T06:52:31;1.00;;;0.50;;
75760;SDS011;64373;46.136;8.830;2023-09-19T06:54:58;0.80;;;0.50;;
75760;SDS011;64373;46.136;8.830;2023-09-19T06:57:31;0.57;;;0.40;;
75760;SDS011;64373;46.136;8.830;2023-09-19T07:02:45;0.80;;;0.60;;
75760;SDS011;64373;46.136;8.830;2023-09-19T07:05:10;1.35;;;0.60;;
75760;SDS011;64373;46.136;8.830;2023-09-19T07:07:39;1.38;;;0.60;;
75760;SDS011;64373;46.136;8.830;2023-09-19T07:10:06;0.68;;;0.57;;
75760;SDS011;64373;46.136;8.830;2023-09-19T07:12:31;0.82;;;0.43;;
75760;SDS011;64373;46.136;8.830;2023-09-19T07:15:00;1.13;;;0.55;;
75760;SDS011;64373;46.136;8.830;2023-09-19T07:17:26;0.50;;;0.38;;
75760;SDS011;64373;46.136;8.830;2023-09-19T07:19:53;1.65;;;0.50;;
75760;SDS011;64373;46.136;8.830;2023-09-19T07:22:18;1.35;;;0.50;;
75760;SDS011;64373;46.136;8.830;2023-09-19T07:24:44;1.52;;;0.60;;
75760;SDS011;64373;46.136;8.830;2023-09-19T07:27:09;0.88;;;0.60;;
75760;SDS011;64373;46.136;8.830;2023-09-19T07:29:35;1.58;;;0.65;;
75760;SDS011;64373;46.136;8.830;2023-09-19T07:32:00;0.52;;;0.50;;
75760;SDS011;64373;46.136;8.830;2023-09-19T07:34:26;1.48;;;0.80;;
75760;SDS011;64373;46.136;8.830;2023-09-19T07:36:51;1.60;;;0.60;;
75760;SDS011;64373;46.136;8.830;2023-09-19T07:39:17;0.70;;;0.50;;
75760;SDS011;64373;46.136;8.830;2023-09-19T07:41:42;1.88;;;1.17;;
75760;SDS011;64373;46.136;8.830;2023-09-19T07:44:08;3.67;;;0.80;;
75760;SDS011;64373;46.136;8.830;2023-09-19T07:46:35;0.73;;;0.70;;
75760;SDS011;64373;46.136;8.830;2023-09-19T07:49:01;2.28;;;0.80;;
75760;SDS011;64373;46.136;8.830;2023-09-19T07:51:26;0.98;;;0.63;;
75760;SDS011;64373;46.136;8.830;2023-09-19T07:53:52;2.28;;;0.90;;
75760;SDS011;64373;46.136;8.830;2023-09-19T07:56:18;2.10;;;0.75;;
75760;SDS011;64373;46.136;8.830;2023-09-19T07:59:03;2.00;;;0.90;;
75760;SDS011;64373;46.136;8.830;2023-09-19T08:01:53;1.33;;;0.70;;
75760;SDS011;64373;46.136;8.830;2023-09-19T08:04:54;2.60;;;0.82;;
75760;SDS011;64373;46.136;8.830;2023-09-19T08:07:45;1.67;;;0.60;;
75760;SDS011;64373;46.136;8.830;2023-09-19T08:10:17;1.08;;;0.70;;
75760;SDS011;64373;46.136;8.830;2023-09-19T08:12:44;0.88;;;0.70;;
75760;SDS011;64373;46.136;8.830;2023-09-19T08:15:15;2.58;;;1.27;;
75760;SDS011;64373;46.136;8.830;2023-09-19T08:17:41;2.70;;;1.48;;
75760;SDS011;64373;46.136;8.830;2023-09-19T08:20:07;3.00;;;1.48;;
75760;SDS011;64373;46.136;8.830;2023-09-19T08:22:42;1.95;;;1.13;;
75760;SDS011;64373;46.136;8.830;2023-09-19T08:25:09;2.60;;;0.82;;
75760;SDS011;64373;46.136;8.830;2023-09-19T08:27:35;1.63;;;0.60;;
75760;SDS011;64373;46.136;8.830;2023-09-19T08:30:01;1.15;;;0.52;;
75760;SDS011;64373;46.136;8.830;2023-09-19T08:32:28;0.85;;;0.60;;
75760;SDS011;64373;46.136;8.830;2023-09-19T08:34:54;0.65;;;0.52;;
75760;SDS011;64373;46.136;8.830;2023-09-19T08:37:19;1.27;;;0.60;;
75760;SDS011;64373;46.136;8.830;2023-09-19T08:39:45;3.95;;;0.60;;
75760;SDS011;64373;46.136;8.830;2023-09-19T08:42:11;1.10;;;0.52;;
75760;SDS011;64373;46.136;8.830;2023-09-19T08:44:37;4.22;;;0.70;;
75760;SDS011;64373;46.136;8.830;2023-09-19T08:47:15;0.95;;;0.55;;
75760;SDS011;64373;46.136;8.830;2023-09-19T08:52:44;0.75;;;0.50;;
75760;SDS011;64373;46.136;8.830;2023-09-19T08:55:13;1.52;;;0.68;;
75760;SDS011;64373;46.136;8.830;2023-09-19T08:57:45;1.70;;;0.60;;
75760;SDS011;64373;46.136;8.830;2023-09-19T09:00:14;0.65;;;0.52;;
75760;SDS011;64373;46.136;8.830;2023-09-19T09:02:43;1.00;;;0.50;;
75760;SDS011;64373;46.136;8.830;2023-09-19T09:05:09;1.30;;;0.60;;
75760;SDS011;64373;46.136;8.830;2023-09-19T09:07:40;1.92;;;0.80;;
75760;SDS011;64373;46.136;8.830;2023-09-19T09:10:06;1.67;;;0.75;;
75760;SDS011;64373;46.136;8.830;2023-09-19T09:12:33;0.60;;;0.40;;
75760;SDS011;64373;46.136;8.830;2023-09-19T09:15:01;2.25;;;0.63;;
75760;SDS011;64373;46.136;8.830;2023-09-19T09:17:29;1.73;;;0.60;;
75760;SDS011;64373;46.136;8.830;2023-09-19T09:19:55;0.90;;;0.45;;
75760;SDS011;64373;46.136;8.830;2023-09-19T09:22:21;0.77;;;0.57;;
75760;SDS011;64373;46.136;8.830;2023-09-19T09:24:53;0.75;;;0.60;;
75760;SDS011;64373;46.136;8.830;2023-09-19T09:27:19;0.95;;;0.43;;
75760;SDS011;64373;46.136;8.830;2023-09-19T09:29:46;0.57;;;0.40;;
75760;SDS011;64373;46.136;8.830;2023-09-19T09:32:18;0.70;;;0.60;;
75760;SDS011;64373;46.136;8.830;2023-09-19T09:34:45;2.15;;;0.60;;
75760;SDS011;64373;46.136;8.830;2023-09-19T09:37:16;1.75;;;0.60;;
75760;SDS011;64373;46.136;8.830;2023-09-19T09:40:18;0.63;;;0.50;;
75760;SDS011;64373;46.136;8.830;2023-09-19T09:42:40;1.27;;;0.60;;
75760;SDS011;64373;46.136;8.830;2023-09-19T09:48:00;1.13;;;0.50;;
75760;SDS011;64373;46.136;8.830;2023-09-19T09:50:35;0.52;;;0.40;;
75760;SDS011;64373;46.136;8.830;2023-09-19T09:53:28;1.50;;;0.60;;
75760;SDS011;64373;46.136;8.830;2023-09-19T09:56:01;0.70;;;0.40;;
75760;SDS011;64373;46.136;8.830;2023-09-19T09:58:50;3.75;;;1.25;;
75760;SDS011;64373;46.136;8.830;2023-09-19T10:01:21;4.53;;;2.05;;
75760;SDS011;64373;46.136;8.830;2023-09-19T10:03:52;3.20;;;1.00;;
75760;SDS011;64373;46.136;8.830;2023-09-19T10:06:22;1.17;;;0.77;;
75760;SDS011;64373;46.136;8.830;2023-09-19T10:08:57;0.85;;;0.52;;
75760;SDS011;64373;46.136;8.830;2023-09-19T10:11:36;0.90;;;0.63;;
75760;SDS011;64373;46.136;8.830;2023-09-19T10:14:05;1.08;;;0.60;;
75760;SDS011;64373;46.136;8.830;2023-09-19T10:16:40;0.75;;;0.60;;
75760;SDS011;64373;46.136;8.830;2023-09-19T10:19:07;1.70;;;0.70;;
75760;SDS011;64373;46.136;8.830;2023-09-19T10:21:34;1.92;;;0.70;;
75760;SDS011;64373;46.136;8.830;2023-09-19T10:24:01;9.43;;;5.00;;
75760;SDS011;64373;46.136;8.830;2023-09-19T10:26:32;7.63;;;4.47;;
75760;SDS011;64373;46.136;8.830;2023-09-19T10:29:01;12.52;;;7.28;;
75760;SDS011;64373;46.136;8.830;2023-09-19T10:31:30;12.90;;;6.70;;
75760;SDS011;64373;46.136;8.830;2023-09-19T10:34:02;3.70;;;2.33;;
75760;SDS011;64373;46.136;8.830;2023-09-19T10:36:31;1.80;;;1.10;;
75760;SDS011;64373;46.136;8.830;2023-09-19T10:38:58;1.45;;;0.73;;
75760;SDS011;64373;46.136;8.830;2023-09-19T10:41:27;1.77;;;0.45;;
75760;SDS011;64373;46.136;8.830;2023-09-19T10:43:54;1.27;;;0.50;;
75760;SDS011;64373;46.136;8.830;2023-09-19T10:46:22;0.80;;;0.50;;
75760;SDS011;64373;46.136;8.830;2023-09-19T10:48:47;1.08;;;0.80;;
75760;SDS011;64373;46.136;8.830;2023-09-19T10:51:16;0.73;;;0.50;;
75760;SDS011;64373;46.136;8.830;2023-09-19T10:53:49;0.63;;;0.40;;
75760;SDS011;64373;46.136;8.830;2023-09-19T10:57:16;0.50;;;0.40;;
75760;SDS011;64373;46.136;8.830;2023-09-19T10:59:19;1.73;;;0.50;;
75760;SDS011;64373;46.136;8.830;2023-09-19T11:14:58;1.02;;;0.60;;
75760;SDS011;64373;46.136;8.830;2023-09-19T11:17:31;1.75;;;0.50;;
75760;SDS011;64373;46.136;8.830;2023-09-19T11:30:43;1.17;;;0.73;;
75760;SDS011;64373;46.136;8.830;2023-09-19T11:33:25;2.35;;;0.70;;
75760;SDS011;64373;46.136;8.830;2023-09-19T11:49:17;0.98;;;0.47;;
75760;SDS011;64373;46.136;8.830;2023-09-19T11:51:50;2.15;;;0.65;;
75760;SDS011;64373;46.136;8.830;2023-09-19T11:54:19;0.40;;;0.30;;
75760;SDS011;64373;46.136;8.830;2023-09-19T11:56:50;0.43;;;0.32;;
75760;SDS011;64373;46.136;8.830;2023-09-19T12:01:51;1.30;;;0.60;;
75760;SDS011;64373;46.136;8.830;2023-09-19T12:07:12;1.00;;;0.60;;
75760;SDS011;64373;46.136;8.830;2023-09-19T12:09:41;0.63;;;0.50;;
75760;SDS011;64373;46.136;8.830;2023-09-19T12:12:09;1.73;;;0.40;;
75760;SDS011;64373;46.136;8.830;2023-09-19T12:14:38;0.57;;;0.45;;
75760;SDS011;64373;46.136;8.830;2023-09-19T12:17:04;0.50;;;0.43;;
75760;SDS011;64373;46.136;8.830;2023-09-19T12:19:30;0.93;;;0.50;;
75760;SDS011;64373;46.136;8.830;2023-09-19T12:22:03;1.77;;;0.75;;
75760;SDS011;64373;46.136;8.830;2023-09-19T12:24:34;0.60;;;0.50;;
75760;SDS011;64373;46.136;8.830;2023-09-19T12:27:07;1.48;;;0.50;;
75760;SDS011;64373;46.136;8.830;2023-09-19T12:29:47;0.52;;;0.40;;
75760;SDS011;64373;46.136;8.830;2023-09-19T12:32:41;0.50;;;0.40;;
75760;SDS011;64373;46.136;8.830;2023-09-19T12:35:07;0.30;;;0.30;;
75760;SDS011;64373;46.136;8.830;2023-09-19T12:37:36;0.50;;;0.30;;
75760;SDS011;64373;46.136;8.830;2023-09-19T12:40:08;0.50;;;0.40;;
75760;SDS011;64373;46.136;8.830;2023-09-19T12:42:47;1.45;;;0.60;;
75760;SDS011;64373;46.136;8.830;2023-09-19T12:45:14;0.95;;;0.60;;
75760;SDS011;64373;46.136;8.830;2023-09-19T12:53:35;1.92;;;0.75;;
75760;SDS011;64373;46.136;8.830;2023-09-19T12:56:05;0.93;;;0.60;;
75760;SDS011;64373;46.136;8.830;2023-09-19T12:58:33;1.00;;;0.50;;
75760;SDS011;64373;46.136;8.830;2023-09-19T13:01:00;1.98;;;0.70;;
75760;SDS011;64373;46.136;8.830;2023-09-19T13:03:27;1.92;;;0.73;;
75760;SDS011;64373;46.136;8.830;2023-09-19T13:06:01;2.35;;;1.08;;
75760;SDS011;64373;46.136;8.830;2023-09-19T13:08:35;1.52;;;0.82;;
75760;SDS011;64373;46.136;8.830;2023-09-19T13:16:18;6.18;;;1.20;;
75760;SDS011;64373;46.136;8.830;2023-09-19T13:21:28;2.53;;;0.68;;
75760;SDS011;64373;46.136;8.830;2023-09-19T13:26:53;2.05;;;0.70;;
75760;SDS011;64373;46.136;8.830;2023-09-19T13:29:19;0.93;;;0.60;;
75760;SDS011;64373;46.136;8.830;2023-09-19T13:34:18;3.08;;;0.90;;
75760;SDS011;64373;46.136;8.830;2023-09-19T13:36:45;3.42;;;1.05;;
75760;SDS011;64373;46.136;8.830;2023-09-19T13:39:15;3.80;;;1.20;;
75760;SDS011;64373;46.136;8.830;2023-09-19T13:41:45;1.33;;;0.88;;
75760;SDS011;64373;46.136;8.830;2023-09-19T13:44:12;2.30;;;0.73;;
75760;SDS011;64373;46.136;8.830;2023-09-19T13:46:39;2.33;;;1.02;;
75760;SDS011;64373;46.136;8.830;2023-09-19T13:49:05;2.30;;;0.70;;
75760;SDS011;64373;46.136;8.830;2023-09-19T13:51:31;1.80;;;0.85;;
75760;SDS011;64373;46.136;8.830;2023-09-19T13:53:58;2.85;;;0.65;;
75760;SDS011;64373;46.136;8.830;2023-09-19T13:56:27;0.80;;;0.55;;
75760;SDS011;64373;46.136;8.830;2023-09-19T13:58:57;1.02;;;0.68;;
75760;SDS011;64373;46.136;8.830;2023-09-19T14:01:22;1.23;;;0.73;;
75760;SDS011;64373;46.136;8.830;2023-09-19T14:03:48;0.73;;;0.50;;
75760;SDS011;64373;46.136;8.830;2023-09-19T14:06:16;1.73;;;0.70;;
75760;SDS011;64373;46.136;8.830;2023-09-19T14:08:42;0.98;;;0.60;;
75760;SDS011;64373;46.136;8.830;2023-09-19T14:11:09;1.85;;;0.50;;
75760;SDS011;64373;46.136;8.830;2023-09-19T14:13:35;0.65;;;0.60;;
75760;SDS011;64373;46.136;8.830;2023-09-19T14:16:06;1.25;;;0.50;;
75760;SDS011;64373;46.136;8.830;2023-09-19T14:18:34;0.90;;;0.70;;
75760;SDS011;64373;46.136;8.830;2023-09-19T14:21:06;1.17;;;0.55;;
75760;SDS011;64373;46.136;8.830;2023-09-19T14:26:02;0.68;;;0.60;;
75760;SDS011;64373;46.136;8.830;2023-09-19T14:28:27;1.00;;;0.70;;
75760;SDS011;64373;46.136;8.830;2023-09-19T14:30:56;1.55;;;0.65;;
75760;SDS011;64373;46.136;8.830;2023-09-19T14:33:26;0.98;;;0.80;;
75760;SDS011;64373;46.136;8.830;2023-09-19T14:35:54;0.85;;;0.50;;
75760;SDS011;64373;46.136;8.830;2023-09-19T14:38:19;1.20;;;0.60;;
75760;SDS011;64373;46.136;8.830;2023-09-19T14:40:44;3.42;;;1.00;;
75760;SDS011;64373;46.136;8.830;2023-09-19T14:43:10;1.88;;;0.90;;
75760;SDS011;64373;46.136;8.830;2023-09-19T14:45:36;1.55;;;0.93;;
75760;SDS011;64373;46.136;8.830;2023-09-19T14:48:01;1.33;;;0.77;;
75760;SDS011;64373;46.136;8.830;2023-09-19T14:50:30;1.63;;;0.52;;
75760;SDS011;64373;46.136;8.830;2023-09-19T14:52:56;0.80;;;0.50;;
75760;SDS011;64373;46.136;8.830;2023-09-19T14:55:23;1.10;;;0.40;;
75760;SDS011;64373;46.136;8.830;2023-09-19T14:57:49;0.40;;;0.30;;
75760;SDS011;64373;46.136;8.830;2023-09-19T15:00:17;0.63;;;0.40;;
75760;SDS011;64373;46.136;8.830;2023-09-19T15:02:45;0.65;;;0.50;;
75760;SDS011;64373;46.136;8.830;2023-09-19T15:05:13;0.70;;;0.40;;
75760;SDS011;64373;46.136;8.830;2023-09-19T15:07:40;0.40;;;0.40;;
75760;SDS011;64373;46.136;8.830;2023-09-19T15:10:06;0.55;;;0.40;;
75760;SDS011;64373;46.136;8.830;2023-09-19T15:12:36;0.38;;;0.30;;
75760;SDS011;64373;46.136;8.830;2023-09-19T15:15:07;0.50;;;0.38;;
75760;SDS011;64373;46.136;8.830;2023-09-19T15:17:34;0.35;;;0.30;;
75760;SDS011;64373;46.136;8.830;2023-09-19T15:20:01;0.73;;;0.55;;
75760;SDS011;64373;46.136;8.830;2023-09-19T15:22:28;0.50;;;0.45;;
75760;SDS011;64373;46.136;8.830;2023-09-19T15:24:53;2.97;;;0.60;;
75760;SDS011;64373;46.136;8.830;2023-09-19T15:27:20;1.23;;;0.60;;
75760;SDS011;64373;46.136;8.830;2023-09-19T15:29:46;0.50;;;0.50;;
75760;SDS011;64373;46.136;8.830;2023-09-19T15:32:12;0.80;;;0.32;;
75760;SDS011;64373;46.136;8.830;2023-09-19T15:34:38;0.30;;;0.30;;
75760;SDS011;64373;46.136;8.830;2023-09-19T15:37:03;0.35;;;0.30;;
75760;SDS011;64373;46.136;8.830;2023-09-19T15:39:30;0.95;;;0.40;;
75760;SDS011;64373;46.136;8.830;2023-09-19T15:41:58;0.47;;;0.35;;
75760;SDS011;64373;46.136;8.830;2023-09-19T15:44:24;0.90;;;0.30;;
75760;SDS011;64373;46.136;8.830;2023-09-19T15:46:53;0.38;;;0.30;;
75760;SDS011;64373;46.136;8.830;2023-09-19T15:49:18;0.55;;;0.32;;
75760;SDS011;64373;46.136;8.830;2023-09-19T15:51:44;0.30;;;0.30;;
75760;SDS011;64373;46.136;8.830;2023-09-19T15:54:10;0.30;;;0.30;;
75760;SDS011;64373;46.136;8.830;2023-09-19T15:56:43;1.58;;;0.50;;
75760;SDS011;64373;46.136;8.830;2023-09-19T15:59:09;1.08;;;0.32;;
75760;SDS011;64373;46.136;8.830;2023-09-19T16:01:37;1.25;;;0.50;;
75760;SDS011;64373;46.136;8.830;2023-09-19T16:04:05;0.60;;;0.52;;
75760;SDS011;64373;46.136;8.830;2023-09-19T16:06:34;0.47;;;0.40;;
75760;SDS011;64373;46.136;8.830;2023-09-19T16:09:00;0.93;;;0.52;;
75760;SDS011;64373;46.136;8.830;2023-09-19T16:11:29;0.82;;;0.45;;
75760;SDS011;64373;46.136;8.830;2023-09-19T16:13:57;0.60;;;0.40;;
75760;SDS011;64373;46.136;8.830;2023-09-19T16:16:23;1.38;;;0.50;;
75760;SDS011;64373;46.136;8.830;2023-09-19T16:18:55;0.90;;;0.50;;
75760;SDS011;64373;46.136;8.830;2023-09-19T16:23:55;2.03;;;0.55;;
75760;SDS011;64373;46.136;8.830;2023-09-19T16:26:26;1.42;;;0.60;;
75760;SDS011;64373;46.136;8.830;2023-09-19T16:28:54;1.10;;;0.80;;
75760;SDS011;64373;46.136;8.830;2023-09-19T16:31:27;2.13;;;0.80;;
75760;SDS011;64373;46.136;8.830;2023-09-19T16:33:54;1.55;;;1.15;;
75760;SDS011;64373;46.136;8.830;2023-09-19T16:36:20;1.67;;;1.48;;
75760;SDS011;64373;46.136;8.830;2023-09-19T16:38:47;1.25;;;1.15;;
75760;SDS011;64373;46.136;8.830;2023-09-19T16:41:13;0.95;;;0.70;;
75760;SDS011;64373;46.136;8.830;2023-09-19T16:43:40;2.38;;;0.55;;
75760;SDS011;64373;46.136;8.830;2023-09-19T16:46:07;0.63;;;0.43;;
75760;SDS011;64373;46.136;8.830;2023-09-19T16:48:36;0.80;;;0.70;;
75760;SDS011;64373;46.136;8.830;2023-09-19T16:51:18;0.73;;;0.40;;
75760;SDS011;64373;46.136;8.830;2023-09-19T16:53:59;1.15;;;0.60;;
75760;SDS011;64373;46.136;8.830;2023-09-19T16:56:24;1.17;;;0.60;;
75760;SDS011;64373;46.136;8.830;2023-09-19T16:58:50;1.05;;;0.60;;
75760;SDS011;64373;46.136;8.830;2023-09-19T17:01:16;0.65;;;0.50;;
75760;SDS011;64373;46.136;8.830;2023-09-19T17:03:44;1.70;;;0.70;;
75760;SDS011;64373;46.136;8.830;2023-09-19T17:06:12;1.70;;;0.85;;
75760;SDS011;64373;46.136;8.830;2023-09-19T17:08:40;2.55;;;0.90;;
75760;SDS011;64373;46.136;8.830;2023-09-19T17:11:13;2.15;;;0.90;;
75760;SDS011;64373;46.136;8.830;2023-09-19T17:13:40;1.08;;;0.70;;
75760;SDS011;64373;46.136;8.830;2023-09-19T17:16:07;2.25;;;0.80;;
75760;SDS011;64373;46.136;8.830;2023-09-19T17:18:34;1.52;;;0.60;;
75760;SDS011;64373;46.136;8.830;2023-09-19T17:21:03;6.13;;;1.10;;
75760;SDS011;64373;46.136;8.830;2023-09-19T17:23:36;2.25;;;1.08;;
75760;SDS011;64373;46.136;8.830;2023-09-19T17:26:05;2.45;;;1.10;;
75760;SDS011;64373;46.136;8.830;2023-09-19T17:28:34;2.42;;;1.10;;
75760;SDS011;64373;46.136;8.830;2023-09-19T17:31:00;1.40;;;0.80;;
75760;SDS011;64373;46.136;8.830;2023-09-19T17:33:28;1.73;;;0.82;;
75760;SDS011;64373;46.136;8.830;2023-09-19T17:36:05;1.40;;;1.00;;
75760;SDS011;64373;46.136;8.830;2023-09-19T17:41:45;0.80;;;0.70;;
75760;SDS011;64373;46.136;8.830;2023-09-19T17:44:17;0.93;;;0.70;;
75760;SDS011;64373;46.136;8.830;2023-09-19T17:47:04;1.50;;;0.57;;
75760;SDS011;64373;46.136;8.830;2023-09-19T17:49:30;0.63;;;0.50;;
75760;SDS011;64373;46.136;8.830;2023-09-19T17:52:04;0.98;;;0.70;;
75760;SDS011;64373;46.136;8.830;2023-09-19T17:54:52;1.83;;;0.57;;
75760;SDS011;64373;46.136;8.830;2023-09-19T17:57:18;0.90;;;0.60;;
75760;SDS011;64373;46.136;8.830;2023-09-19T17:59:44;1.45;;;0.50;;
75760;SDS011;64373;46.136;8.830;2023-09-19T18:02:09;0.80;;;0.60;;
75760;SDS011;64373;46.136;8.830;2023-09-19T18:04:35;1.30;;;0.65;;
75760;SDS011;64373;46.136;8.830;2023-09-19T18:07:01;1.63;;;0.75;;
75760;SDS011;64373;46.136;8.830;2023-09-19T18:09:27;2.55;;;0.80;;
75760;SDS011;64373;46.136;8.830;2023-09-19T18:11:54;1.40;;;0.70;;